createdAt,value
2022-10-06T00:00:47.293Z,96264.78
2022-10-06T00:03:14.574Z,96277.06
2022-10-06T00:05:41.887Z,96262.19
2022-10-06T00:08:10.241Z,96263.66
2022-10-06T00:10:37.345Z,96262.72
2022-10-06T00:13:03.957Z,96272.22
2022-10-06T00:15:32.468Z,96262.81
2022-10-06T00:17:59.716Z,96265.84
2022-10-06T00:20:27.092Z,96260.03
2022-10-06T00:22:54.575Z,96268.03
2022-10-06T00:25:23.476Z,96264.19
2022-10-06T00:27:52.313Z,96270.81
2022-10-06T00:30:22.340Z,96261.66
2022-10-06T00:32:58.517Z,96258.47
2022-10-06T00:35:27.481Z,96262.28
2022-10-06T00:37:54.586Z,96265.09
2022-10-06T00:40:22.661Z,96259.59
2022-10-06T00:42:53.432Z,96260.22
2022-10-06T00:45:24.823Z,96263.75
2022-10-06T00:47:52.647Z,96261.03
2022-10-06T00:50:19.739Z,96263.06
2022-10-06T00:52:46.894Z,96258.84
2022-10-06T00:55:14.022Z,96257.00
2022-10-06T00:57:41.802Z,96264.53
2022-10-06T01:00:09.521Z,96263.81
2022-10-06T01:02:44.650Z,96268.94
2022-10-06T01:05:20.041Z,96280.34
2022-10-06T01:07:46.728Z,96284.50
2022-10-06T01:10:13.320Z,96288.03
2022-10-06T01:12:40.183Z,96279.91
2022-10-06T01:15:08.159Z,96277.91
2022-10-06T01:17:39.161Z,96281.88
2022-10-06T01:20:10.333Z,96278.72
2022-10-06T01:22:46.635Z,96285.06
2022-10-06T01:25:16.376Z,96287.88
2022-10-06T01:27:47.828Z,96287.75
2022-10-06T01:30:18.931Z,96291.59
2022-10-06T01:32:45.845Z,96278.81
2022-10-06T01:35:12.486Z,96287.72
2022-10-06T01:37:39.101Z,96287.72
2022-10-06T01:40:06.202Z,96289.59
2022-10-06T01:42:32.859Z,96288.13
2022-10-06T01:44:59.692Z,96294.00
2022-10-06T01:47:26.308Z,96283.78
2022-10-06T01:49:52.930Z,96290.06
2022-10-06T01:52:20.467Z,96285.03
2022-10-06T01:54:47.137Z,96290.53
2022-10-06T01:57:13.758Z,96284.44
2022-10-06T01:59:40.355Z,96282.53
2022-10-06T02:02:06.991Z,96284.78
2022-10-06T02:04:33.583Z,96282.56
2022-10-06T02:07:00.179Z,96288.78
2022-10-06T02:09:26.783Z,96285.31
2022-10-06T02:11:53.471Z,96283.72
2022-10-06T02:14:20.047Z,96285.91
2022-10-06T02:16:46.638Z,96283.44
2022-10-06T02:19:13.205Z,96286.06
2022-10-06T02:21:39.920Z,96286.84
2022-10-06T02:24:06.571Z,96289.56
2022-10-06T02:26:33.264Z,96286.53
2022-10-06T02:28:59.868Z,96284.09
2022-10-06T02:31:26.608Z,96277.84
2022-10-06T02:33:53.310Z,96282.34
2022-10-06T02:36:20.076Z,96279.94
2022-10-06T02:38:46.650Z,96284.38
2022-10-06T02:41:13.449Z,96289.78
2022-10-06T02:43:40.155Z,96287.69
2022-10-06T02:46:10.994Z,96291.22
2022-10-06T02:48:38.446Z,96300.13
2022-10-06T02:51:08.567Z,96293.75
2022-10-06T02:53:36.025Z,96289.63
2022-10-06T02:56:06.077Z,96300.03
2022-10-06T02:58:33.649Z,96297.50
2022-10-06T03:01:11.021Z,96295.19
2022-10-06T03:03:38.570Z,96294.47
2022-10-06T03:06:12.826Z,96287.25
2022-10-06T03:08:39.428Z,96285.59
2022-10-06T03:11:06.097Z,96290.22
2022-10-06T03:13:32.692Z,96294.66
2022-10-06T03:15:59.526Z,96295.31
2022-10-06T03:18:26.721Z,96299.81
2022-10-06T03:20:53.582Z,96284.84
2022-10-06T03:23:20.150Z,96288.19
2022-10-06T03:25:55.400Z,96278.81
2022-10-06T03:28:22.069Z,96287.59
2022-10-06T03:30:49.708Z,96302.22
2022-10-06T03:33:16.296Z,96306.88
2022-10-06T03:35:42.900Z,96306.56
2022-10-06T03:38:09.494Z,96303.38
2022-10-06T03:40:36.151Z,96302.03
2022-10-06T03:43:03.488Z,96300.25
2022-10-06T03:45:30.192Z,96302.69
2022-10-06T03:47:56.792Z,96305.78
2022-10-06T03:50:23.485Z,96308.16
2022-10-06T03:52:50.290Z,96303.94
2022-10-06T03:55:17.030Z,96298.13
2022-10-06T03:57:43.692Z,96303.97
2022-10-06T04:00:11.029Z,96320.84
2022-10-06T04:02:39.868Z,96323.34
2022-10-06T04:05:07.080Z,96320.06
2022-10-06T04:07:33.838Z,96326.41
2022-10-06T04:10:00.470Z,96327.75
2022-10-06T04:12:27.124Z,96330.88
2022-10-06T04:14:57.903Z,96331.25
2022-10-06T04:17:26.703Z,96322.06
2022-10-06T04:19:53.383Z,96323.84
2022-10-06T04:22:20.036Z,96326.78
2022-10-06T04:24:46.880Z,96326.50
2022-10-06T04:27:13.595Z,96325.53
2022-10-06T04:29:40.286Z,96323.13
2022-10-06T04:32:07.241Z,96331.00
2022-10-06T04:34:33.928Z,96332.28
2022-10-06T04:37:00.576Z,96331.91
2022-10-06T04:39:27.218Z,96334.91
2022-10-06T04:41:53.857Z,96338.03
2022-10-06T04:44:20.459Z,96336.41
2022-10-06T04:46:47.091Z,96348.19
2022-10-06T04:49:19.611Z,96340.53
2022-10-06T04:51:50.574Z,96345.09
2022-10-06T04:54:18.054Z,96341.03
2022-10-06T04:56:44.635Z,96345.16
2022-10-06T04:59:11.213Z,96354.00
2022-10-06T05:01:38.110Z,96353.56
2022-10-06T05:04:08.095Z,96346.06
2022-10-06T05:06:36.411Z,96342.59
2022-10-06T05:09:14.043Z,96344.84
2022-10-06T05:11:40.701Z,96346.69
2022-10-06T05:14:07.638Z,96338.59
2022-10-06T05:16:34.669Z,96342.84
2022-10-06T05:19:01.579Z,96352.22
2022-10-06T05:21:31.063Z,96348.41
2022-10-06T05:23:58.630Z,96350.59
2022-10-06T05:26:29.060Z,96349.47
2022-10-06T05:28:55.933Z,96353.19
2022-10-06T05:31:25.788Z,96354.31
2022-10-06T05:33:52.879Z,96352.88
2022-10-06T05:36:22.299Z,96354.16
2022-10-06T05:38:49.066Z,96356.84
2022-10-06T05:41:21.679Z,96356.59
2022-10-06T05:43:48.525Z,96350.72
2022-10-06T05:46:18.311Z,96350.22
2022-10-06T05:48:48.644Z,96349.66
2022-10-06T05:51:17.118Z,96351.78
2022-10-06T05:53:44.055Z,96358.88
2022-10-06T05:56:13.888Z,96357.78
2022-10-06T05:58:46.286Z,96349.81
2022-10-06T06:01:16.572Z,96352.69
2022-10-06T06:03:48.175Z,96352.84
2022-10-06T06:06:16.880Z,96354.09
2022-10-06T06:08:44.536Z,96359.50
2022-10-06T06:11:11.630Z,96339.31
2022-10-06T06:13:39.741Z,96347.06
2022-10-06T06:16:12.681Z,96344.66
2022-10-06T06:18:39.379Z,96345.75
2022-10-06T06:21:09.186Z,96355.19
2022-10-06T06:23:42.520Z,96360.66
2022-10-06T06:26:12.395Z,96355.16
2022-10-06T06:28:39.358Z,96350.41
2022-10-06T06:31:10.995Z,96359.47
2022-10-06T06:33:40.258Z,96361.03
2022-10-06T06:36:21.944Z,96364.72
2022-10-06T06:38:51.535Z,96359.78
2022-10-06T06:41:27.175Z,96356.75
2022-10-06T06:43:54.300Z,96363.72
2022-10-06T06:46:24.121Z,96359.50
2022-10-06T06:48:55.829Z,96371.03
2022-10-06T06:51:23.246Z,96373.97
2022-10-06T06:53:52.185Z,96376.66
2022-10-06T06:56:20.344Z,96367.25
2022-10-06T06:58:47.244Z,96375.69
2022-10-06T07:01:18.738Z,96366.72
2022-10-06T07:03:57.619Z,96371.75
2022-10-06T07:06:28.168Z,96381.34
2022-10-06T07:08:57.746Z,96378.44
2022-10-06T07:11:34.052Z,96386.13
2022-10-06T07:14:03.833Z,96381.38
2022-10-06T07:16:32.111Z,96389.47
2022-10-06T07:18:58.893Z,96387.09
2022-10-06T07:21:25.493Z,96381.31
2022-10-06T07:23:52.226Z,96379.03
2022-10-06T07:26:19.005Z,96375.44
2022-10-06T07:28:45.627Z,96374.41
2022-10-06T07:31:12.367Z,96375.38
2022-10-06T07:33:39.016Z,96383.81
2022-10-06T07:36:05.721Z,96384.81
2022-10-06T07:38:32.364Z,96383.72
2022-10-06T07:43:45.648Z,96373.53
2022-10-06T07:46:12.541Z,96377.75
2022-10-06T07:48:39.330Z,96375.72
2022-10-06T07:51:19.253Z,96368.59
2022-10-06T07:53:46.466Z,96374.03
2022-10-06T07:56:13.091Z,96377.78
2022-10-06T07:58:40.062Z,96382.50
2022-10-06T08:01:12.392Z,96378.06
2022-10-06T08:03:40.888Z,96383.56
2022-10-06T08:06:08.636Z,96388.16
2022-10-06T08:08:35.220Z,96386.06
2022-10-06T08:11:02.901Z,96383.94
2022-10-06T08:13:29.762Z,96385.66
2022-10-06T08:16:03.097Z,96385.09
2022-10-06T08:18:46.937Z,96387.50
2022-10-06T08:21:17.186Z,96392.94
2022-10-06T08:23:45.707Z,96397.94
2022-10-06T08:26:14.262Z,96391.66
2022-10-06T08:28:47.985Z,96396.66
2022-10-06T08:31:15.596Z,96388.66
2022-10-06T08:33:44.299Z,96388.88
2022-10-06T08:36:16.741Z,96393.22
2022-10-06T08:38:43.432Z,96385.44
2022-10-06T08:41:25.360Z,96390.22
2022-10-06T08:44:02.072Z,96400.09
2022-10-06T08:46:39.342Z,96392.50
2022-10-06T08:49:15.759Z,96384.56
2022-10-06T08:51:54.526Z,96391.34
2022-10-06T08:54:37.462Z,96391.75
2022-10-06T08:57:27.918Z,96394.38
2022-10-06T08:59:54.795Z,96385.09
2022-10-06T09:02:31.689Z,96385.81
2022-10-06T09:05:02.721Z,96389.13
2022-10-06T09:08:09.534Z,96390.03
2022-10-06T09:11:06.602Z,96394.56
2022-10-06T09:13:50.874Z,96399.53
2022-10-06T09:16:41.091Z,96392.38
2022-10-06T09:19:08.981Z,96385.03
2022-10-06T09:21:43.113Z,96385.72
2022-10-06T09:24:16.615Z,96386.22
2022-10-06T09:26:46.931Z,96388.47
2022-10-06T09:29:14.038Z,96383.97
2022-10-06T09:31:44.461Z,96384.06
2022-10-06T09:34:17.988Z,96385.69
2022-10-06T09:37:02.014Z,96385.38
2022-10-06T09:39:34.670Z,96381.50
2022-10-06T09:42:06.059Z,96376.81
2022-10-06T09:45:00.542Z,96376.31
2022-10-06T09:47:42.403Z,96380.75
2022-10-06T09:50:08.973Z,96377.53
2022-10-06T09:52:35.657Z,96376.53
2022-10-06T09:55:12.729Z,96369.66
2022-10-06T09:57:52.277Z,96374.84
2022-10-06T10:00:25.942Z,96368.06
2022-10-06T10:03:02.651Z,96369.53
2022-10-06T10:05:32.695Z,96361.06
2022-10-06T10:08:16.159Z,96358.38
2022-10-06T10:10:42.781Z,96364.50
2022-10-06T10:13:23.163Z,96351.88
2022-10-06T10:16:00.526Z,96351.91
2022-10-06T10:18:31.542Z,96358.00
2022-10-06T10:21:01.362Z,96353.38
2022-10-06T10:23:32.002Z,96350.91
2022-10-06T10:26:19.192Z,96341.25
2022-10-06T10:28:51.944Z,96349.47
2022-10-06T10:31:45.063Z,96351.84
2022-10-06T10:34:24.393Z,96349.59
2022-10-06T10:37:14.826Z,96344.66
2022-10-06T10:40:10.355Z,96348.56
2022-10-06T10:42:43.368Z,96345.47
2022-10-06T10:45:32.599Z,96344.22
2022-10-06T10:48:01.291Z,96339.75
2022-10-06T10:50:49.344Z,96337.84
2022-10-06T10:53:42.599Z,96343.31
2022-10-06T10:56:13.241Z,96332.03
2022-10-06T10:58:42.982Z,96340.38
2022-10-06T11:01:56.003Z,96336.78
2022-10-06T11:04:22.688Z,96334.44
2022-10-06T11:07:10.302Z,96341.59
2022-10-06T11:09:42.914Z,96337.19
2022-10-06T11:12:24.744Z,96337.13
2022-10-06T11:15:05.333Z,96338.22
2022-10-06T11:17:44.669Z,96336.03
2022-10-06T11:20:38.846Z,96330.44
2022-10-06T11:23:38.299Z,96334.38
2022-10-06T11:26:13.419Z,96329.84
2022-10-06T11:28:53.772Z,96325.34
2022-10-06T11:31:28.689Z,96331.16
2022-10-06T11:34:00.397Z,96326.56
2022-10-06T11:36:48.535Z,96325.47
2022-10-06T11:39:33.667Z,96327.06
2022-10-06T11:42:00.188Z,96322.44
2022-10-06T11:44:41.365Z,96312.34
2022-10-06T11:47:28.134Z,96308.66
2022-10-06T11:50:01.227Z,96309.22
2022-10-06T11:52:27.805Z,96305.00
2022-10-06T11:55:13.056Z,96309.88
2022-10-06T11:58:23.439Z,96313.50
2022-10-06T12:00:52.509Z,96305.09
2022-10-06T12:03:30.949Z,96301.03
2022-10-06T12:05:57.814Z,96300.06
2022-10-06T12:08:39.459Z,96287.13
2022-10-06T12:11:41.407Z,96290.66
2022-10-06T12:17:58.460Z,96287.56
2022-10-06T12:20:32.754Z,96277.41
2022-10-06T12:23:08.090Z,96277.09
2022-10-06T12:25:46.349Z,96279.75
2022-10-06T12:28:26.766Z,96275.94
2022-10-06T12:31:18.467Z,96268.97
2022-10-06T12:33:45.766Z,96261.34
2022-10-06T12:36:22.954Z,96269.75
2022-10-06T12:39:01.430Z,96263.94
2022-10-06T12:41:52.884Z,96265.25
2022-10-06T12:44:36.447Z,96272.22
2022-10-06T12:47:12.732Z,96252.78
2022-10-06T12:49:47.659Z,96254.66
2022-10-06T12:52:35.398Z,96242.66
2022-10-06T12:55:48.076Z,96240.25
2022-10-06T12:58:28.307Z,96236.91
2022-10-06T13:01:01.830Z,96231.47
2022-10-06T13:03:30.053Z,96226.97
2022-10-06T13:06:02.667Z,96229.56
2022-10-06T13:08:32.261Z,96229.47
2022-10-06T13:11:26.729Z,96226.34
2022-10-06T13:14:06.791Z,96225.78
2022-10-06T13:16:38.979Z,96227.94
2022-10-06T13:19:05.693Z,96212.72
2022-10-06T13:21:33.978Z,96210.91
2022-10-06T13:24:00.742Z,96213.34
2022-10-06T13:26:30.107Z,96218.09
2022-10-06T13:28:59.531Z,96221.91
2022-10-06T13:31:30.957Z,96213.38
2022-10-06T13:34:09.674Z,96211.97
2022-10-06T13:36:43.720Z,96214.03
2022-10-06T13:39:18.553Z,96205.19
2022-10-06T13:41:52.720Z,96206.50
2022-10-06T13:44:19.353Z,96213.03
2022-10-06T13:46:53.674Z,96204.09
2022-10-06T13:49:20.218Z,96208.59
2022-10-06T13:51:52.778Z,96216.66
2022-10-06T13:54:58.725Z,96213.56
2022-10-06T13:57:38.873Z,96210.25
2022-10-06T14:00:14.830Z,96210.63
2022-10-06T14:02:47.589Z,96211.72
2022-10-06T14:05:37.535Z,96213.09
2022-10-06T14:08:22.242Z,96211.34
2022-10-06T14:10:59.483Z,96210.84
2022-10-06T14:13:37.941Z,96207.09
2022-10-06T14:16:08.638Z,96205.50
2022-10-06T14:18:39.452Z,96208.66
2022-10-06T14:21:17.898Z,96208.06
2022-10-06T14:23:49.034Z,96209.06
2022-10-06T14:26:17.836Z,96217.03
2022-10-06T14:28:50.424Z,96212.97
2022-10-06T14:31:18.086Z,96211.47
2022-10-06T14:33:46.286Z,96208.00
2022-10-06T14:36:38.109Z,96213.63
2022-10-06T14:39:06.979Z,96216.38
2022-10-06T14:41:34.235Z,96208.94
2022-10-06T14:44:04.823Z,96207.50
2022-10-06T14:46:32.350Z,96206.09
2022-10-06T14:49:00.717Z,96207.38
2022-10-06T14:51:32.080Z,96203.88
2022-10-06T14:54:01.401Z,96195.50
2022-10-06T14:56:31.667Z,96198.91
2022-10-06T14:59:05.666Z,96184.78
2022-10-06T15:01:34.889Z,96191.47
2022-10-06T15:04:05.084Z,96180.13
2022-10-06T15:06:31.766Z,96189.63
2022-10-06T15:08:58.846Z,96185.94
2022-10-06T15:11:28.666Z,96180.97
2022-10-06T15:13:57.274Z,96184.94
2022-10-06T15:16:24.650Z,96185.81
2022-10-06T15:18:52.388Z,96179.91
2022-10-06T15:21:19.762Z,96175.09
2022-10-06T15:23:46.609Z,96174.69
2022-10-06T15:26:15.649Z,96175.22
2022-10-06T15:28:42.297Z,96175.88
2022-10-06T15:31:09.064Z,96172.09
2022-10-06T15:33:35.730Z,96173.41
2022-10-06T15:36:19.610Z,96175.38
2022-10-06T15:38:46.981Z,96164.84
2022-10-06T15:41:13.866Z,96167.41
2022-10-06T15:43:41.421Z,96156.75
2022-10-06T15:46:08.108Z,96155.69
2022-10-06T15:48:34.872Z,96158.84
2022-10-06T15:51:01.532Z,96161.84
2022-10-06T15:53:28.204Z,96155.88
2022-10-06T15:55:54.805Z,96163.66
2022-10-06T15:58:21.443Z,96160.47
2022-10-06T16:00:48.036Z,96164.16
2022-10-06T16:03:14.626Z,96164.63
2022-10-06T16:05:41.306Z,96161.72
2022-10-06T16:08:07.859Z,96159.72
2022-10-06T16:10:34.427Z,96162.09
2022-10-06T16:13:00.995Z,96171.72
2022-10-06T16:15:27.648Z,96170.25
2022-10-06T16:17:54.271Z,96169.94
2022-10-06T16:20:20.860Z,96166.34
2022-10-06T16:22:47.434Z,96170.59
2022-10-06T16:25:14.045Z,96165.00
2022-10-06T16:27:40.699Z,96166.72
2022-10-06T16:30:08.044Z,96167.19
2022-10-06T16:32:34.764Z,96166.63
2022-10-06T16:35:01.473Z,96168.72
2022-10-06T16:37:28.064Z,96162.75
2022-10-06T16:39:54.778Z,96160.50
2022-10-06T16:42:21.545Z,96167.75
2022-10-06T16:44:51.081Z,96160.00
2022-10-06T16:47:17.852Z,96168.63
2022-10-06T16:49:44.492Z,96166.44
2022-10-06T16:52:11.186Z,96169.81
2022-10-06T16:54:38.062Z,96163.44
2022-10-06T16:57:05.709Z,96171.09
2022-10-06T16:59:35.085Z,96167.06
2022-10-06T17:02:02.010Z,96162.03
2022-10-06T17:04:28.904Z,96164.06
2022-10-06T17:06:57.291Z,96167.22
2022-10-06T17:09:29.028Z,96170.44
2022-10-06T17:11:58.538Z,96172.97
2022-10-06T17:14:25.696Z,96174.00
2022-10-06T17:16:54.667Z,96178.22
2022-10-06T17:19:23.908Z,96172.84
2022-10-06T17:21:57.402Z,96185.81
2022-10-06T17:24:25.305Z,96178.44
2022-10-06T17:26:51.959Z,96176.50
2022-10-06T17:29:21.214Z,96181.25
2022-10-06T17:31:51.026Z,96179.75
2022-10-06T17:34:21.447Z,96180.59
2022-10-06T17:36:51.568Z,96181.53
2022-10-06T17:39:21.539Z,96196.22
2022-10-06T17:41:50.522Z,96190.63
2022-10-06T17:44:20.386Z,96191.00
2022-10-06T17:46:47.148Z,96193.06
2022-10-06T17:49:16.038Z,96199.75
2022-10-06T17:51:44.818Z,96192.78
2022-10-06T17:54:13.204Z,96196.97
2022-10-06T17:56:40.034Z,96208.34
2022-10-06T17:59:11.336Z,96194.47
2022-10-06T18:01:38.126Z,96197.50
2022-10-06T18:04:06.540Z,96198.91
2022-10-06T18:06:35.571Z,96188.34
2022-10-06T18:09:02.640Z,96189.16
2022-10-06T18:11:30.595Z,96187.78
2022-10-06T18:13:57.665Z,96202.75
2022-10-06T18:16:27.635Z,96193.78
2022-10-06T18:18:55.864Z,96208.91
2022-10-06T18:21:24.911Z,96199.84
2022-10-06T18:23:52.676Z,96204.25
2022-10-06T18:26:20.983Z,96192.88
2022-10-06T18:28:49.615Z,96210.41
2022-10-06T18:31:18.634Z,96208.53
2022-10-06T18:36:33.599Z,96205.53
2022-10-06T18:39:00.219Z,96206.94
2022-10-06T18:41:28.175Z,96210.06
2022-10-06T18:43:55.465Z,96201.56
2022-10-06T18:46:22.286Z,96211.59
2022-10-06T18:48:50.093Z,96208.66
2022-10-06T18:51:16.689Z,96206.91
2022-10-06T18:53:43.295Z,96199.38
2022-10-06T18:56:09.888Z,96209.72
2022-10-06T18:58:40.666Z,96209.00
2022-10-06T19:01:08.501Z,96215.38
2022-10-06T19:03:35.200Z,96213.84
2022-10-06T19:06:04.882Z,96211.06
2022-10-06T19:08:31.543Z,96222.28
2022-10-06T19:11:06.507Z,96227.28
2022-10-06T19:13:34.252Z,96215.91
2022-10-06T19:16:00.854Z,96216.16
2022-10-06T19:18:35.491Z,96214.75
2022-10-06T19:21:07.151Z,96222.03
2022-10-06T19:23:37.944Z,96227.50
2022-10-06T19:26:07.565Z,96224.13
2022-10-06T19:28:34.794Z,96220.16
2022-10-06T19:31:05.438Z,96212.75
2022-10-06T19:33:32.577Z,96222.34
2022-10-06T19:35:59.579Z,96225.81
2022-10-06T19:38:27.667Z,96217.03
2022-10-06T19:40:54.429Z,96220.16
2022-10-06T19:43:21.033Z,96225.50
2022-10-06T19:45:57.335Z,96223.78
2022-10-06T19:48:23.976Z,96224.91
2022-10-06T19:50:50.532Z,96224.97
2022-10-06T19:53:17.126Z,96228.03
2022-10-06T19:55:43.710Z,96230.53
2022-10-06T19:58:10.389Z,96235.06
2022-10-06T20:00:36.962Z,96228.34
2022-10-06T20:03:03.596Z,96225.59
2022-10-06T20:05:30.219Z,96232.78
2022-10-06T20:07:56.841Z,96229.31
2022-10-06T20:10:23.458Z,96235.19
2022-10-06T20:12:50.071Z,96228.50
2022-10-06T20:15:16.673Z,96227.94
2022-10-06T20:17:43.509Z,96225.88
2022-10-06T20:20:10.464Z,96234.25
2022-10-06T20:22:37.168Z,96238.88
2022-10-06T20:25:04.090Z,96235.56
2022-10-06T20:27:30.725Z,96235.31
2022-10-06T20:29:57.386Z,96237.09
2022-10-06T20:32:24.185Z,96230.59
2022-10-06T20:34:52.158Z,96234.25
2022-10-06T20:37:20.069Z,96232.69
2022-10-06T20:39:46.728Z,96238.38
2022-10-06T20:42:15.477Z,96238.47
2022-10-06T20:44:43.096Z,96233.50
2022-10-06T20:47:10.638Z,96233.16
2022-10-06T20:49:37.450Z,96241.25
2022-10-06T20:52:05.384Z,96235.94
2022-10-06T20:54:32.389Z,96247.16
2022-10-06T20:56:59.074Z,96239.47
2022-10-06T20:59:25.854Z,96246.19
2022-10-06T21:01:52.481Z,96242.72
2022-10-06T21:04:20.032Z,96238.69
2022-10-06T21:06:47.510Z,96239.53
2022-10-06T21:09:16.332Z,96242.97
2022-10-06T21:11:44.264Z,96237.66
2022-10-06T21:14:12.246Z,96237.19
2022-10-06T21:16:42.735Z,96239.25
2022-10-06T21:19:12.602Z,96250.06
2022-10-06T21:21:39.197Z,96239.50
2022-10-06T21:24:06.490Z,96236.59
2022-10-06T21:26:33.195Z,96235.63
2022-10-06T21:28:59.819Z,96225.66
2022-10-06T21:31:27.910Z,96226.03
2022-10-06T21:33:55.366Z,96228.41
2022-10-06T21:36:25.134Z,96236.38
2022-10-06T21:38:55.130Z,96236.25
2022-10-06T21:41:25.212Z,96232.78
2022-10-06T21:44:14.051Z,96230.09
2022-10-06T21:46:54.958Z,96227.25
2022-10-06T21:49:23.832Z,96226.50
2022-10-06T21:51:52.777Z,96228.75
2022-10-06T21:54:20.951Z,96229.34
2022-10-06T21:56:47.956Z,96228.66
2022-10-06T21:59:14.582Z,96229.03
2022-10-06T22:01:43.832Z,96224.31
2022-10-06T22:04:11.566Z,96219.50
2022-10-06T22:06:38.159Z,96220.31
2022-10-06T22:09:07.934Z,96219.41
2022-10-06T22:11:39.844Z,96222.75
2022-10-06T22:14:11.777Z,96219.38
2022-10-06T22:16:38.969Z,96220.19
2022-10-06T22:19:10.010Z,96216.84
2022-10-06T22:21:42.338Z,96219.88
2022-10-06T22:24:12.333Z,96215.97
2022-10-06T22:26:40.596Z,96208.38
2022-10-06T22:29:09.715Z,96219.72
2022-10-06T22:31:39.437Z,96215.50
2022-10-06T22:34:07.045Z,96208.16
2022-10-06T22:36:34.250Z,96210.75
2022-10-06T22:39:01.442Z,96214.34
2022-10-06T22:41:28.912Z,96219.72
2022-10-06T22:43:58.026Z,96214.91
2022-10-06T22:46:26.642Z,96210.72
2022-10-06T22:48:53.793Z,96207.59
2022-10-06T22:51:20.898Z,96211.69
2022-10-06T22:53:55.171Z,96205.50
2022-10-06T22:56:25.030Z,96206.19
2022-10-06T22:58:51.601Z,96199.25
2022-10-06T23:01:19.503Z,96197.69
2022-10-06T23:03:47.211Z,96194.38
2022-10-06T23:06:16.265Z,96204.56
2022-10-06T23:08:43.573Z,96202.66
2022-10-06T23:11:19.963Z,96188.50
2022-10-06T23:13:46.759Z,96192.09
2022-10-06T23:16:16.096Z,96200.91
2022-10-06T23:18:45.773Z,96195.53
2022-10-06T23:21:19.067Z,96200.31
2022-10-06T23:23:46.709Z,96195.34
2022-10-06T23:26:15.878Z,96200.03
2022-10-06T23:28:42.972Z,96202.16
2022-10-06T23:31:10.684Z,96193.88
2022-10-06T23:33:37.361Z,96199.84
2022-10-06T23:36:07.080Z,96192.97
2022-10-06T23:38:35.341Z,96196.91
2022-10-06T23:41:02.254Z,96186.47
2022-10-06T23:43:28.807Z,96185.91
2022-10-06T23:45:55.407Z,96187.22
2022-10-06T23:48:22.554Z,96187.13
2022-10-06T23:51:04.378Z,96188.69
2022-10-06T23:53:32.125Z,96186.56
2022-10-06T23:55:59.382Z,96182.94
2022-10-06T23:58:27.751Z,96182.78
